Terminal Aerodrome Forecast
Issued by NWS Twin Cities, MN

Home | Current Version | Previous Version | Text Only | Print | Product List | Glossary On
Versions: 1 2 3 4 5 6 7 8 9 10 11 12 13 14
401
FTUS43 KMPX 261720
TAFEAU
TAF
KEAU 261720Z 2618/2718 27003KT P6SM SCT040 BKN150
     FM270700 VRB02KT P6SM OVC100
     FM271000 08003KT 6SM -RA SCT020 OVC040
     FM271400 05011KT 4SM RA BR SCT007 OVC015=

USA.gov is the U.S. government's official web portal to all federal, state and local government web resources and services.